sensor_id;sensor_type;location;lat;lon;timestamp;temperature;humidity
3356;DHT22;1691;52.486;13.374;2023-07-08T00:00:45;20.60;53.00
3356;DHT22;1691;52.486;13.374;2023-07-08T00:03:22;20.50;53.20
3356;DHT22;1691;52.486;13.374;2023-07-08T00:05:53;20.50;53.30
3356;DHT22;1691;52.486;13.374;2023-07-08T00:08:22;20.40;53.60
3356;DHT22;1691;52.486;13.374;2023-07-08T00:10:49;20.40;53.80
3356;DHT22;1691;52.486;13.374;2023-07-08T00:13:16;20.30;53.90
3356;DHT22;1691;52.486;13.374;2023-07-08T00:15:43;20.30;54.20
3356;DHT22;1691;52.486;13.374;2023-07-08T00:18:15;20.30;54.40
3356;DHT22;1691;52.486;13.374;2023-07-08T00:20:48;20.30;54.50
3356;DHT22;1691;52.486;13.374;2023-07-08T00:23:16;20.20;54.70
3356;DHT22;1691;52.486;13.374;2023-07-08T00:25:43;20.20;54.70
3356;DHT22;1691;52.486;13.374;2023-07-08T00:28:16;20.20;54.90
3356;DHT22;1691;52.486;13.374;2023-07-08T00:30:43;20.20;55.00
3356;DHT22;1691;52.486;13.374;2023-07-08T00:33:10;20.10;55.20
3356;DHT22;1691;52.486;13.374;2023-07-08T00:35:37;20.10;55.30
3356;DHT22;1691;52.486;13.374;2023-07-08T00:38:24;20.00;55.50
3356;DHT22;1691;52.486;13.374;2023-07-08T00:41:08;20.00;55.80
3356;DHT22;1691;52.486;13.374;2023-07-08T00:48:45;19.90;55.90
3356;DHT22;1691;52.486;13.374;2023-07-08T00:51:12;19.90;55.90
3356;DHT22;1691;52.486;13.374;2023-07-08T00:53:39;19.90;55.90
3356;DHT22;1691;52.486;13.374;2023-07-08T00:56:13;19.90;56.10
3356;DHT22;1691;52.486;13.374;2023-07-08T00:58:47;19.90;56.20
3356;DHT22;1691;52.486;13.374;2023-07-08T01:01:15;19.80;56.40
3356;DHT22;1691;52.486;13.374;2023-07-08T01:03:50;19.80;56.50
3356;DHT22;1691;52.486;13.374;2023-07-08T01:06:21;19.70;56.70
3356;DHT22;1691;52.486;13.374;2023-07-08T01:08:50;19.70;56.90
3356;DHT22;1691;52.486;13.374;2023-07-08T01:11:21;19.60;57.20
3356;DHT22;1691;52.486;13.374;2023-07-08T01:13:49;19.60;57.30
3356;DHT22;1691;52.486;13.374;2023-07-08T01:16:17;19.60;57.50
3356;DHT22;1691;52.486;13.374;2023-07-08T01:18:44;19.50;57.80
3356;DHT22;1691;52.486;13.374;2023-07-08T01:24:10;19.50;58.20
3356;DHT22;1691;52.486;13.374;2023-07-08T01:26:42;19.50;58.20
3356;DHT22;1691;52.486;13.374;2023-07-08T01:29:11;19.50;58.20
3356;DHT22;1691;52.486;13.374;2023-07-08T01:31:38;19.40;58.40
3356;DHT22;1691;52.486;13.374;2023-07-08T01:34:07;19.40;58.40
3356;DHT22;1691;52.486;13.374;2023-07-08T01:36:38;19.40;58.50
3356;DHT22;1691;52.486;13.374;2023-07-08T01:39:08;19.40;58.50
3356;DHT22;1691;52.486;13.374;2023-07-08T01:41:36;19.40;58.50
3356;DHT22;1691;52.486;13.374;2023-07-08T01:44:03;19.40;58.50
3356;DHT22;1691;52.486;13.374;2023-07-08T01:46:30;19.40;58.50
3356;DHT22;1691;52.486;13.374;2023-07-08T01:48:59;19.30;58.70
3356;DHT22;1691;52.486;13.374;2023-07-08T01:51:28;19.30;58.90
3356;DHT22;1691;52.486;13.374;2023-07-08T01:53:54;19.20;59.00
3356;DHT22;1691;52.486;13.374;2023-07-08T01:56:21;19.20;59.20
3356;DHT22;1691;52.486;13.374;2023-07-08T01:58:48;19.20;59.30
3356;DHT22;1691;52.486;13.374;2023-07-08T02:01:15;19.20;59.60
3356;DHT22;1691;52.486;13.374;2023-07-08T02:03:42;19.10;59.80
3356;DHT22;1691;52.486;13.374;2023-07-08T02:06:10;19.10;59.80
3356;DHT22;1691;52.486;13.374;2023-07-08T02:08:37;19.10;59.90
3356;DHT22;1691;52.486;13.374;2023-07-08T02:11:04;19.00;60.10
3356;DHT22;1691;52.486;13.374;2023-07-08T02:13:31;19.00;60.10
3356;DHT22;1691;52.486;13.374;2023-07-08T02:15:58;19.00;60.50
3356;DHT22;1691;52.486;13.374;2023-07-08T02:18:25;19.00;60.30
3356;DHT22;1691;52.486;13.374;2023-07-08T02:20:52;19.00;60.30
3356;DHT22;1691;52.486;13.374;2023-07-08T02:23:19;19.00;60.30
3356;DHT22;1691;52.486;13.374;2023-07-08T02:25:53;19.00;59.90
3356;DHT22;1691;52.486;13.374;2023-07-08T02:28:20;19.00;59.80
3356;DHT22;1691;52.486;13.374;2023-07-08T02:30:47;19.00;59.60
3356;DHT22;1691;52.486;13.374;2023-07-08T02:33:14;19.00;59.60
3356;DHT22;1691;52.486;13.374;2023-07-08T02:35:44;19.00;59.80
3356;DHT22;1691;52.486;13.374;2023-07-08T02:38:12;18.90;59.90
3356;DHT22;1691;52.486;13.374;2023-07-08T02:40:39;18.90;59.90
3356;DHT22;1691;52.486;13.374;2023-07-08T02:43:06;18.90;60.10
3356;DHT22;1691;52.486;13.374;2023-07-08T02:45:32;18.90;60.10
3356;DHT22;1691;52.486;13.374;2023-07-08T02:47:59;18.90;60.30
3356;DHT22;1691;52.486;13.374;2023-07-08T02:50:26;18.90;60.30
3356;DHT22;1691;52.486;13.374;2023-07-08T02:52:53;18.90;60.30
3356;DHT22;1691;52.486;13.374;2023-07-08T02:55:19;18.90;60.30
3356;DHT22;1691;52.486;13.374;2023-07-08T02:57:46;18.90;60.50
3356;DHT22;1691;52.486;13.374;2023-07-08T03:00:13;18.90;60.30
3356;DHT22;1691;52.486;13.374;2023-07-08T03:02:41;18.90;60.50
3356;DHT22;1691;52.486;13.374;2023-07-08T03:05:08;18.90;60.50
3356;DHT22;1691;52.486;13.374;2023-07-08T03:07:35;18.90;60.50
3356;DHT22;1691;52.486;13.374;2023-07-08T03:10:02;18.90;60.30
3356;DHT22;1691;52.486;13.374;2023-07-08T03:12:30;18.90;60.50
3356;DHT22;1691;52.486;13.374;2023-07-08T03:14:56;18.90;60.50
3356;DHT22;1691;52.486;13.374;2023-07-08T03:17:23;18.80;60.30
3356;DHT22;1691;52.486;13.374;2023-07-08T03:19:50;18.80;60.30
3356;DHT22;1691;52.486;13.374;2023-07-08T03:22:17;18.90;60.10
3356;DHT22;1691;52.486;13.374;2023-07-08T03:24:44;18.90;60.10
3356;DHT22;1691;52.486;13.374;2023-07-08T03:27:14;18.90;60.10
3356;DHT22;1691;52.486;13.374;2023-07-08T03:29:42;18.90;59.90
3356;DHT22;1691;52.486;13.374;2023-07-08T03:32:10;18.90;59.90
3356;DHT22;1691;52.486;13.374;2023-07-08T03:34:38;19.00;59.60
3356;DHT22;1691;52.486;13.374;2023-07-08T03:37:05;19.00;59.50
3356;DHT22;1691;52.486;13.374;2023-07-08T03:39:32;19.10;59.50
3356;DHT22;1691;52.486;13.374;2023-07-08T03:41:59;19.10;59.30
3356;DHT22;1691;52.486;13.374;2023-07-08T03:44:26;19.10;59.50
3356;DHT22;1691;52.486;13.374;2023-07-08T03:46:53;19.10;59.50
3356;DHT22;1691;52.486;13.374;2023-07-08T03:49:21;19.20;59.50
3356;DHT22;1691;52.486;13.374;2023-07-08T03:51:52;19.20;59.50
3356;DHT22;1691;52.486;13.374;2023-07-08T03:54:22;19.20;59.50
3356;DHT22;1691;52.486;13.374;2023-07-08T03:56:50;19.30;59.50
3356;DHT22;1691;52.486;13.374;2023-07-08T03:59:17;19.40;59.50
3356;DHT22;1691;52.486;13.374;2023-07-08T04:01:44;19.50;59.30
3356;DHT22;1691;52.486;13.374;2023-07-08T04:04:13;19.80;59.00
3356;DHT22;1691;52.486;13.374;2023-07-08T04:06:41;20.30;58.50
3356;DHT22;1691;52.486;13.374;2023-07-08T04:09:07;20.90;57.30
3356;DHT22;1691;52.486;13.374;2023-07-08T04:11:34;21.50;56.20
3356;DHT22;1691;52.486;13.374;2023-07-08T04:14:01;22.10;54.90
3356;DHT22;1691;52.486;13.374;2023-07-08T04:16:30;22.80;53.30
3356;DHT22;1691;52.486;13.374;2023-07-08T04:18:57;23.30;52.10
3356;DHT22;1691;52.486;13.374;2023-07-08T04:21:25;23.90;50.90
3356;DHT22;1691;52.486;13.374;2023-07-08T04:23:52;24.30;49.80
3356;DHT22;1691;52.486;13.374;2023-07-08T04:26:19;24.70;48.90
3356;DHT22;1691;52.486;13.374;2023-07-08T04:28:46;25.10;47.80
3356;DHT22;1691;52.486;13.374;2023-07-08T04:31:13;25.40;46.90
3356;DHT22;1691;52.486;13.374;2023-07-08T04:33:40;25.70;45.90
3356;DHT22;1691;52.486;13.374;2023-07-08T04:36:14;25.90;45.20
3356;DHT22;1691;52.486;13.374;2023-07-08T04:38:41;26.30;44.20
3356;DHT22;1691;52.486;13.374;2023-07-08T04:41:08;26.60;43.60
3356;DHT22;1691;52.486;13.374;2023-07-08T04:43:35;26.90;42.90
3356;DHT22;1691;52.486;13.374;2023-07-08T04:46:02;27.30;41.90
3356;DHT22;1691;52.486;13.374;2023-07-08T04:48:29;27.40;41.20
3356;DHT22;1691;52.486;13.374;2023-07-08T04:50:56;27.60;40.90
3356;DHT22;1691;52.486;13.374;2023-07-08T04:53:24;27.80;40.20
3356;DHT22;1691;52.486;13.374;2023-07-08T04:55:54;28.10;39.60
3356;DHT22;1691;52.486;13.374;2023-07-08T04:58:21;28.20;38.90
3356;DHT22;1691;52.486;13.374;2023-07-08T05:00:48;28.30;38.50
3356;DHT22;1691;52.486;13.374;2023-07-08T05:03:15;28.50;38.10
3356;DHT22;1691;52.486;13.374;2023-07-08T05:05:42;28.70;37.60
3356;DHT22;1691;52.486;13.374;2023-07-08T05:08:09;29.00;37.20
3356;DHT22;1691;52.486;13.374;2023-07-08T05:10:36;29.20;36.50
3356;DHT22;1691;52.486;13.374;2023-07-08T05:13:03;29.40;36.20
3356;DHT22;1691;52.486;13.374;2023-07-08T05:15:30;29.70;35.80
3356;DHT22;1691;52.486;13.374;2023-07-08T05:17:56;30.20;35.00
3356;DHT22;1691;52.486;13.374;2023-07-08T05:20:23;30.60;34.20
3356;DHT22;1691;52.486;13.374;2023-07-08T05:22:50;30.90;33.60
3356;DHT22;1691;52.486;13.374;2023-07-08T05:25:18;31.10;33.20
3356;DHT22;1691;52.486;13.374;2023-07-08T05:27:46;31.40;32.50
3356;DHT22;1691;52.486;13.374;2023-07-08T05:30:16;31.50;32.10
3356;DHT22;1691;52.486;13.374;2023-07-08T05:32:43;31.60;31.80
3356;DHT22;1691;52.486;13.374;2023-07-08T05:35:10;31.70;31.50
3356;DHT22;1691;52.486;13.374;2023-07-08T05:37:37;31.80;31.20
3356;DHT22;1691;52.486;13.374;2023-07-08T05:40:08;31.80;31.00
3356;DHT22;1691;52.486;13.374;2023-07-08T05:42:35;31.90;30.50
3356;DHT22;1691;52.486;13.374;2023-07-08T05:45:03;32.20;30.20
3356;DHT22;1691;52.486;13.374;2023-07-08T05:47:30;32.50;29.80
3356;DHT22;1691;52.486;13.374;2023-07-08T05:49:57;32.80;29.50
3356;DHT22;1691;52.486;13.374;2023-07-08T05:52:23;33.10;29.20
3356;DHT22;1691;52.486;13.374;2023-07-08T05:54:50;33.30;29.00
3356;DHT22;1691;52.486;13.374;2023-07-08T05:57:17;33.60;28.70
3356;DHT22;1691;52.486;13.374;2023-07-08T05:59:44;34.10;28.40
3356;DHT22;1691;52.486;13.374;2023-07-08T06:02:12;34.50;28.00
3356;DHT22;1691;52.486;13.374;2023-07-08T06:04:40;34.80;27.60
3356;DHT22;1691;52.486;13.374;2023-07-08T06:07:06;34.90;27.30
3356;DHT22;1691;52.486;13.374;2023-07-08T06:09:34;35.10;27.00
3356;DHT22;1691;52.486;13.374;2023-07-08T06:12:01;35.20;27.00
3356;DHT22;1691;52.486;13.374;2023-07-08T06:14:28;35.40;26.70
3356;DHT22;1691;52.486;13.374;2023-07-08T06:16:55;35.50;26.50
3356;DHT22;1691;52.486;13.374;2023-07-08T06:19:22;35.50;26.30
3356;DHT22;1691;52.486;13.374;2023-07-08T06:21:49;35.60;26.30
3356;DHT22;1691;52.486;13.374;2023-07-08T06:24:16;35.60;26.30
3356;DHT22;1691;52.486;13.374;2023-07-08T06:26:43;35.60;26.30
3356;DHT22;1691;52.486;13.374;2023-07-08T06:29:09;35.70;26.20
3356;DHT22;1691;52.486;13.374;2023-07-08T06:31:36;36.10;25.90
3356;DHT22;1691;52.486;13.374;2023-07-08T06:34:03;36.40;25.70
3356;DHT22;1691;52.486;13.374;2023-07-08T06:36:31;36.80;25.40
3356;DHT22;1691;52.486;13.374;2023-07-08T06:38:58;37.20;25.10
3356;DHT22;1691;52.486;13.374;2023-07-08T06:41:25;37.50;24.70
3356;DHT22;1691;52.486;13.374;2023-07-08T06:43:51;37.80;24.40
3356;DHT22;1691;52.486;13.374;2023-07-08T06:46:20;37.90;24.10
3356;DHT22;1691;52.486;13.374;2023-07-08T06:48:47;37.90;24.10
3356;DHT22;1691;52.486;13.374;2023-07-08T06:51:13;38.10;24.00
3356;DHT22;1691;52.486;13.374;2023-07-08T06:53:40;38.20;23.70
3356;DHT22;1691;52.486;13.374;2023-07-08T06:56:07;38.20;23.60
3356;DHT22;1691;52.486;13.374;2023-07-08T06:58:34;38.20;23.60
3356;DHT22;1691;52.486;13.374;2023-07-08T07:01:01;38.30;23.40
3356;DHT22;1691;52.486;13.374;2023-07-08T07:03:29;38.30;23.40
3356;DHT22;1691;52.486;13.374;2023-07-08T07:05:56;38.60;23.20
3356;DHT22;1691;52.486;13.374;2023-07-08T07:08:22;38.80;23.00
3356;DHT22;1691;52.486;13.374;2023-07-08T07:10:49;39.10;22.80
3356;DHT22;1691;52.486;13.374;2023-07-08T07:13:16;39.50;22.60
3356;DHT22;1691;52.486;13.374;2023-07-08T07:15:43;39.80;22.40
3356;DHT22;1691;52.486;13.374;2023-07-08T07:18:10;39.70;22.30
3356;DHT22;1691;52.486;13.374;2023-07-08T07:20:37;39.70;22.20
3356;DHT22;1691;52.486;13.374;2023-07-08T07:23:04;39.90;22.10
3356;DHT22;1691;52.486;13.374;2023-07-08T07:25:31;40.20;22.00
3356;DHT22;1691;52.486;13.374;2023-07-08T07:27:58;40.50;21.70
3356;DHT22;1691;52.486;13.374;2023-07-08T07:30:25;40.70;21.60
3356;DHT22;1691;52.486;13.374;2023-07-08T07:32:52;40.80;21.40
3356;DHT22;1691;52.486;13.374;2023-07-08T07:35:19;41.00;21.30
3356;DHT22;1691;52.486;13.374;2023-07-08T07:37:46;41.20;21.20
3356;DHT22;1691;52.486;13.374;2023-07-08T07:40:13;41.40;21.10
3356;DHT22;1691;52.486;13.374;2023-07-08T07:42:44;41.70;20.90
3356;DHT22;1691;52.486;13.374;2023-07-08T07:45:13;41.60;20.80
3356;DHT22;1691;52.486;13.374;2023-07-08T07:47:40;41.40;20.80
3356;DHT22;1691;52.486;13.374;2023-07-08T07:50:08;41.20;20.90
3356;DHT22;1691;52.486;13.374;2023-07-08T07:52:35;41.20;21.00
3356;DHT22;1691;52.486;13.374;2023-07-08T07:55:03;41.30;20.90
3356;DHT22;1691;52.486;13.374;2023-07-08T07:57:30;41.30;20.60
3356;DHT22;1691;52.486;13.374;2023-07-08T07:59:57;41.20;20.50
3356;DHT22;1691;52.486;13.374;2023-07-08T08:02:24;41.40;20.50
3356;DHT22;1691;52.486;13.374;2023-07-08T08:04:50;41.90;20.50
3356;DHT22;1691;52.486;13.374;2023-07-08T08:07:17;42.30;20.30
3356;DHT22;1691;52.486;13.374;2023-07-08T08:09:44;42.70;20.00
3356;DHT22;1691;52.486;13.374;2023-07-08T08:12:11;43.00;19.80
3356;DHT22;1691;52.486;13.374;2023-07-08T08:14:38;43.00;19.60
3356;DHT22;1691;52.486;13.374;2023-07-08T08:17:06;42.80;19.40
3356;DHT22;1691;52.486;13.374;2023-07-08T08:19:33;42.60;19.30
3356;DHT22;1691;52.486;13.374;2023-07-08T08:21:59;42.30;19.50
3356;DHT22;1691;52.486;13.374;2023-07-08T08:24:27;42.40;19.50
3356;DHT22;1691;52.486;13.374;2023-07-08T08:26:54;42.40;19.40
3356;DHT22;1691;52.486;13.374;2023-07-08T08:29:21;42.40;19.40
3356;DHT22;1691;52.486;13.374;2023-07-08T08:31:48;42.60;19.50
3356;DHT22;1691;52.486;13.374;2023-07-08T08:34:17;42.90;19.30
3356;DHT22;1691;52.486;13.374;2023-07-08T08:36:44;43.20;19.10
3356;DHT22;1691;52.486;13.374;2023-07-08T08:39:11;43.50;19.00
3356;DHT22;1691;52.486;13.374;2023-07-08T08:41:40;43.70;18.70
3356;DHT22;1691;52.486;13.374;2023-07-08T08:44:14;43.70;18.50
3356;DHT22;1691;52.486;13.374;2023-07-08T08:51:48;43.70;18.20
3356;DHT22;1691;52.486;13.374;2023-07-08T08:54:16;44.00;18.10
3356;DHT22;1691;52.486;13.374;2023-07-08T08:59:37;44.00;18.20
3356;DHT22;1691;52.486;13.374;2023-07-08T09:05:05;44.40;17.70
3356;DHT22;1691;52.486;13.374;2023-07-08T09:07:44;44.20;17.50
3356;DHT22;1691;52.486;13.374;2023-07-08T09:10:21;44.10;17.60
3356;DHT22;1691;52.486;13.374;2023-07-08T09:12:53;43.90;17.70
3356;DHT22;1691;52.486;13.374;2023-07-08T09:15:22;43.70;17.60
3356;DHT22;1691;52.486;13.374;2023-07-08T09:17:49;43.40;17.40
3356;DHT22;1691;52.486;13.374;2023-07-08T09:20:23;43.30;17.20
3356;DHT22;1691;52.486;13.374;2023-07-08T09:23:14;43.50;17.30
3356;DHT22;1691;52.486;13.374;2023-07-08T09:28:15;43.50;16.50
3356;DHT22;1691;52.486;13.374;2023-07-08T09:30:48;43.40;16.60
3356;DHT22;1691;52.486;13.374;2023-07-08T09:33:18;43.00;16.70
3356;DHT22;1691;52.486;13.374;2023-07-08T09:35:47;42.90;17.10
3356;DHT22;1691;52.486;13.374;2023-07-08T09:38:21;42.90;17.40
3356;DHT22;1691;52.486;13.374;2023-07-08T09:40:53;42.60;17.60
3356;DHT22;1691;52.486;13.374;2023-07-08T09:43:26;42.20;17.90
3356;DHT22;1691;52.486;13.374;2023-07-08T09:45:58;42.00;18.10
3356;DHT22;1691;52.486;13.374;2023-07-08T09:48:27;41.90;18.10
3356;DHT22;1691;52.486;13.374;2023-07-08T09:50:57;42.00;18.00
3356;DHT22;1691;52.486;13.374;2023-07-08T09:53:25;42.20;17.90
3356;DHT22;1691;52.486;13.374;2023-07-08T09:55:58;42.40;17.80
3356;DHT22;1691;52.486;13.374;2023-07-08T09:58:40;42.50;17.60
3356;DHT22;1691;52.486;13.374;2023-07-08T10:01:17;42.50;17.40
3356;DHT22;1691;52.486;13.374;2023-07-08T10:03:46;42.20;17.60
3356;DHT22;1691;52.486;13.374;2023-07-08T10:06:18;42.20;17.50
3356;DHT22;1691;52.486;13.374;2023-07-08T10:08:46;42.50;17.40
3356;DHT22;1691;52.486;13.374;2023-07-08T10:13:46;42.60;17.00
3356;DHT22;1691;52.486;13.374;2023-07-08T10:16:31;42.20;17.10
3356;DHT22;1691;52.486;13.374;2023-07-08T10:18:59;41.70;17.40
3356;DHT22;1691;52.486;13.374;2023-07-08T10:35:33;40.90;17.80
3356;DHT22;1691;52.486;13.374;2023-07-08T10:46:37;39.50;17.70
3356;DHT22;1691;52.486;13.374;2023-07-08T10:49:08;39.70;17.90
3356;DHT22;1691;52.486;13.374;2023-07-08T10:54:30;40.30;17.60
3356;DHT22;1691;52.486;13.374;2023-07-08T10:57:15;40.70;17.60
3356;DHT22;1691;52.486;13.374;2023-07-08T11:05:46;41.00;17.60
3356;DHT22;1691;52.486;13.374;2023-07-08T11:08:26;41.00;17.60
3356;DHT22;1691;52.486;13.374;2023-07-08T11:13:53;40.80;17.60
3356;DHT22;1691;52.486;13.374;2023-07-08T11:16:37;40.20;17.80
3356;DHT22;1691;52.486;13.374;2023-07-08T11:19:17;39.40;18.20
3356;DHT22;1691;52.486;13.374;2023-07-08T11:21:47;38.70;18.60
3356;DHT22;1691;52.486;13.374;2023-07-08T11:27:29;37.40;19.40
3356;DHT22;1691;52.486;13.374;2023-07-08T11:30:13;36.70;19.80
3356;DHT22;1691;52.486;13.374;2023-07-08T11:32:43;36.30;20.10
3356;DHT22;1691;52.486;13.374;2023-07-08T11:35:23;36.00;20.20
3356;DHT22;1691;52.486;13.374;2023-07-08T11:37:54;35.70;20.50
3356;DHT22;1691;52.486;13.374;2023-07-08T11:40:22;35.20;20.70
3356;DHT22;1691;52.486;13.374;2023-07-08T11:42:52;34.80;21.10
3356;DHT22;1691;52.486;13.374;2023-07-08T11:45:31;34.50;21.40
3356;DHT22;1691;52.486;13.374;2023-07-08T11:48:12;34.30;21.70
3356;DHT22;1691;52.486;13.374;2023-07-08T11:50:45;33.90;22.10
3356;DHT22;1691;52.486;13.374;2023-07-08T11:56:00;33.30;22.70
3356;DHT22;1691;52.486;13.374;2023-07-08T11:58:29;33.10;22.80
3356;DHT22;1691;52.486;13.374;2023-07-08T12:01:04;32.90;23.20
3356;DHT22;1691;52.486;13.374;2023-07-08T12:03:48;32.70;23.10
3356;DHT22;1691;52.486;13.374;2023-07-08T12:08:56;32.50;23.50
3356;DHT22;1691;52.486;13.374;2023-07-08T12:11:39;32.40;23.60
3356;DHT22;1691;52.486;13.374;2023-07-08T12:14:06;32.30;23.70
3356;DHT22;1691;52.486;13.374;2023-07-08T12:16:35;32.30;23.80
3356;DHT22;1691;52.486;13.374;2023-07-08T12:19:04;32.20;23.70
3356;DHT22;1691;52.486;13.374;2023-07-08T12:21:35;32.20;23.50
3356;DHT22;1691;52.486;13.374;2023-07-08T12:24:06;32.20;23.50
3356;DHT22;1691;52.486;13.374;2023-07-08T12:26:34;32.10;23.70
3356;DHT22;1691;52.486;13.374;2023-07-08T12:29:01;32.20;23.70
3356;DHT22;1691;52.486;13.374;2023-07-08T12:31:28;32.20;23.60
3356;DHT22;1691;52.486;13.374;2023-07-08T12:33:56;32.20;23.70
3356;DHT22;1691;52.486;13.374;2023-07-08T12:36:28;32.20;23.80
3356;DHT22;1691;52.486;13.374;2023-07-08T12:38:58;32.20;24.00
3356;DHT22;1691;52.486;13.374;2023-07-08T12:41:32;32.20;24.00
3356;DHT22;1691;52.486;13.374;2023-07-08T12:44:00;32.10;23.90
3356;DHT22;1691;52.486;13.374;2023-07-08T12:46:28;32.00;23.90
3356;DHT22;1691;52.486;13.374;2023-07-08T12:48:55;31.90;24.00
3356;DHT22;1691;52.486;13.374;2023-07-08T12:51:25;31.80;24.10
3356;DHT22;1691;52.486;13.374;2023-07-08T12:53:53;31.70;24.20
3356;DHT22;1691;52.486;13.374;2023-07-08T12:56:23;31.60;24.40
3356;DHT22;1691;52.486;13.374;2023-07-08T12:58:56;31.50;24.50
3356;DHT22;1691;52.486;13.374;2023-07-08T13:01:26;31.50;24.60
3356;DHT22;1691;52.486;13.374;2023-07-08T13:04:05;31.50;24.70
3356;DHT22;1691;52.486;13.374;2023-07-08T13:06:34;31.50;24.80
3356;DHT22;1691;52.486;13.374;2023-07-08T13:11:51;31.50;25.00
3356;DHT22;1691;52.486;13.374;2023-07-08T13:14:20;31.50;25.00
3356;DHT22;1691;52.486;13.374;2023-07-08T13:16:48;31.50;24.80
3356;DHT22;1691;52.486;13.374;2023-07-08T13:19:16;31.50;24.80
3356;DHT22;1691;52.486;13.374;2023-07-08T13:21:46;31.50;24.80
3356;DHT22;1691;52.486;13.374;2023-07-08T13:24:13;31.50;24.80
3356;DHT22;1691;52.486;13.374;2023-07-08T13:26:45;31.50;24.60
3356;DHT22;1691;52.486;13.374;2023-07-08T13:29:14;31.60;24.60
3356;DHT22;1691;52.486;13.374;2023-07-08T13:31:53;31.60;24.60
3356;DHT22;1691;52.486;13.374;2023-07-08T13:34:23;31.60;24.70
3356;DHT22;1691;52.486;13.374;2023-07-08T13:36:51;31.60;24.70
3356;DHT22;1691;52.486;13.374;2023-07-08T13:39:31;31.50;24.60
3356;DHT22;1691;52.486;13.374;2023-07-08T13:42:00;31.40;24.80
3356;DHT22;1691;52.486;13.374;2023-07-08T13:44:27;31.40;24.80
3356;DHT22;1691;52.486;13.374;2023-07-08T13:46:57;31.40;24.70
3356;DHT22;1691;52.486;13.374;2023-07-08T13:49:40;31.40;24.70
3356;DHT22;1691;52.486;13.374;2023-07-08T13:52:19;31.40;24.80
3356;DHT22;1691;52.486;13.374;2023-07-08T13:54:51;31.50;24.60
3356;DHT22;1691;52.486;13.374;2023-07-08T13:57:27;31.50;24.50
3356;DHT22;1691;52.486;13.374;2023-07-08T13:59:54;31.50;24.40
3356;DHT22;1691;52.486;13.374;2023-07-08T14:02:24;31.50;24.50
3356;DHT22;1691;52.486;13.374;2023-07-08T14:04:53;31.50;24.50
3356;DHT22;1691;52.486;13.374;2023-07-08T14:07:27;31.50;24.60
3356;DHT22;1691;52.486;13.374;2023-07-08T14:09:55;31.50;24.50
3356;DHT22;1691;52.486;13.374;2023-07-08T14:12:22;31.50;24.40
3356;DHT22;1691;52.486;13.374;2023-07-08T14:14:49;31.50;24.40
3356;DHT22;1691;52.486;13.374;2023-07-08T14:17:22;31.40;24.40
3356;DHT22;1691;52.486;13.374;2023-07-08T14:19:50;31.40;24.30
3356;DHT22;1691;52.486;13.374;2023-07-08T14:22:28;31.30;24.40
3356;DHT22;1691;52.486;13.374;2023-07-08T14:24:56;31.20;24.50
3356;DHT22;1691;52.486;13.374;2023-07-08T14:27:28;31.20;24.50
3356;DHT22;1691;52.486;13.374;2023-07-08T14:29:54;31.20;24.50
3356;DHT22;1691;52.486;13.374;2023-07-08T14:32:28;31.30;24.50
3356;DHT22;1691;52.486;13.374;2023-07-08T14:35:22;31.30;24.50
3356;DHT22;1691;52.486;13.374;2023-07-08T14:37:50;31.30;24.60
3356;DHT22;1691;52.486;13.374;2023-07-08T14:40:35;31.40;24.50
3356;DHT22;1691;52.486;13.374;2023-07-08T14:43:45;31.40;24.60
3356;DHT22;1691;52.486;13.374;2023-07-08T14:46:09;31.50;24.40
3356;DHT22;1691;52.486;13.374;2023-07-08T14:48:37;31.60;24.40
3356;DHT22;1691;52.486;13.374;2023-07-08T14:51:03;31.70;24.30
3356;DHT22;1691;52.486;13.374;2023-07-08T14:53:31;31.70;24.30
3356;DHT22;1691;52.486;13.374;2023-07-08T14:55:59;31.70;24.20
3356;DHT22;1691;52.486;13.374;2023-07-08T14:58:29;31.60;24.20
3356;DHT22;1691;52.486;13.374;2023-07-08T15:00:58;31.60;24.30
3356;DHT22;1691;52.486;13.374;2023-07-08T15:03:26;31.60;24.30
3356;DHT22;1691;52.486;13.374;2023-07-08T15:05:53;31.60;24.30
3356;DHT22;1691;52.486;13.374;2023-07-08T15:08:20;31.60;24.40
3356;DHT22;1691;52.486;13.374;2023-07-08T15:10:49;31.60;24.40
3356;DHT22;1691;52.486;13.374;2023-07-08T15:13:23;31.60;24.50
3356;DHT22;1691;52.486;13.374;2023-07-08T15:15:52;31.60;24.50
3356;DHT22;1691;52.486;13.374;2023-07-08T15:18:20;31.60;24.50
3356;DHT22;1691;52.486;13.374;2023-07-08T15:20:47;31.60;24.50
3356;DHT22;1691;52.486;13.374;2023-07-08T15:23:14;31.60;24.50
3356;DHT22;1691;52.486;13.374;2023-07-08T15:25:42;31.60;24.40
3356;DHT22;1691;52.486;13.374;2023-07-08T15:28:19;31.60;24.40
3356;DHT22;1691;52.486;13.374;2023-07-08T15:30:47;31.50;24.20
3356;DHT22;1691;52.486;13.374;2023-07-08T15:33:15;31.50;24.20
3356;DHT22;1691;52.486;13.374;2023-07-08T15:35:43;31.50;24.20
3356;DHT22;1691;52.486;13.374;2023-07-08T15:38:10;31.50;24.10
3356;DHT22;1691;52.486;13.374;2023-07-08T15:40:38;31.40;24.20
3356;DHT22;1691;52.486;13.374;2023-07-08T15:43:11;31.40;24.20
3356;DHT22;1691;52.486;13.374;2023-07-08T15:45:38;31.40;24.30
3356;DHT22;1691;52.486;13.374;2023-07-08T15:48:14;31.40;24.30
3356;DHT22;1691;52.486;13.374;2023-07-08T15:50:42;31.40;24.30
3356;DHT22;1691;52.486;13.374;2023-07-08T15:53:09;31.40;24.40
3356;DHT22;1691;52.486;13.374;2023-07-08T15:55:41;31.40;24.40
3356;DHT22;1691;52.486;13.374;2023-07-08T15:58:29;31.30;24.30
3356;DHT22;1691;52.486;13.374;2023-07-08T16:00:59;31.30;24.30
3356;DHT22;1691;52.486;13.374;2023-07-08T16:03:30;31.20;24.20
3356;DHT22;1691;52.486;13.374;2023-07-08T16:05:58;31.30;24.10
3356;DHT22;1691;52.486;13.374;2023-07-08T16:08:26;31.30;24.10
3356;DHT22;1691;52.486;13.374;2023-07-08T16:10:58;31.20;24.00
3356;DHT22;1691;52.486;13.374;2023-07-08T16:13:30;31.20;23.90
3356;DHT22;1691;52.486;13.374;2023-07-08T16:15:57;31.10;23.90
3356;DHT22;1691;52.486;13.374;2023-07-08T16:18:24;31.10;24.00
3356;DHT22;1691;52.486;13.374;2023-07-08T16:20:52;31.00;24.00
3356;DHT22;1691;52.486;13.374;2023-07-08T16:23:19;31.00;24.20
3356;DHT22;1691;52.486;13.374;2023-07-08T16:25:49;31.10;24.30
3356;DHT22;1691;52.486;13.374;2023-07-08T16:28:22;31.10;24.40
3356;DHT22;1691;52.486;13.374;2023-07-08T16:30:54;31.10;24.50
3356;DHT22;1691;52.486;13.374;2023-07-08T16:33:22;31.10;24.50
3356;DHT22;1691;52.486;13.374;2023-07-08T16:35:48;31.10;24.50
3356;DHT22;1691;52.486;13.374;2023-07-08T16:38:16;31.10;24.40
3356;DHT22;1691;52.486;13.374;2023-07-08T16:40:43;31.10;24.30
3356;DHT22;1691;52.486;13.374;2023-07-08T16:43:26;31.00;24.30
3356;DHT22;1691;52.486;13.374;2023-07-08T16:45:54;31.00;24.40
3356;DHT22;1691;52.486;13.374;2023-07-08T16:48:21;31.00;24.40
3356;DHT22;1691;52.486;13.374;2023-07-08T16:50:48;31.00;24.50
3356;DHT22;1691;52.486;13.374;2023-07-08T16:53:14;30.90;24.50
3356;DHT22;1691;52.486;13.374;2023-07-08T16:55:41;30.90;24.60
3356;DHT22;1691;52.486;13.374;2023-07-08T16:58:10;30.90;24.70
3356;DHT22;1691;52.486;13.374;2023-07-08T17:00:40;30.90;24.70
3356;DHT22;1691;52.486;13.374;2023-07-08T17:03:10;30.90;24.80
3356;DHT22;1691;52.486;13.374;2023-07-08T17:05:41;30.80;24.80
3356;DHT22;1691;52.486;13.374;2023-07-08T17:08:15;30.80;24.80